Time;durP1;ratioP1;P1;durP2;ratioP2;P2;SDS_P1;SDS_P2;PMS_P1;PMS_P2;Temp;Humidity;BMP_temperature;BMP_pressure;BME280_temperature;BME280_humidity;BME280_pressure;Samples;Min_cycle;Max_cycle;Signal;HPM_P1;HPM_P2
2021/12/04 00:01:18;;;;;;;68.07;27.40;;;;;;;3.67;100.00;99996.72;5090771;27;20051;-70
2021/12/04 00:03:46;;;;;;;72.10;26.67;;;;;;;3.65;100.00;99988.81;5082905;28;20070;-70
2021/12/04 00:06:21;;;;;;;64.90;26.42;;;;;;;3.66;100.00;99998.50;5089519;28;20048;-70
2021/12/04 00:08:55;;;;;;;63.47;23.77;;;;;;;3.67;100.00;99980.88;5089541;27;20063;-70
2021/12/04 00:11:24;;;;;;;68.53;26.63;;;;;;;3.68;100.00;99987.91;5088823;28;20528;-70
2021/12/04 00:13:52;;;;;;;67.75;24.98;;;;;;;3.67;100.00;99981.75;5089614;28;20732;-70
2021/12/04 00:16:21;;;;;;;72.38;25.83;;;;;;;3.68;100.00;99977.38;5085793;27;20060;-70
2021/12/04 00:18:50;;;;;;;65.90;25.90;;;;;;;3.67;100.00;99976.47;5087919;28;20215;-70
2021/12/04 00:21:19;;;;;;;75.43;26.67;;;;;;;3.67;100.00;99971.19;5086754;27;20052;-70
2021/12/04 00:23:47;;;;;;;80.38;28.58;;;;;;;3.70;100.00;99967.66;5091904;27;20146;-70
2021/12/04 00:26:14;;;;;;;75.00;25.98;;;;;;;3.71;100.00;99957.06;5084059;28;20276;-70
2021/12/04 00:28:45;;;;;;;80.88;27.50;;;;;;;3.70;100.00;99959.72;5074864;28;21361;-70
2021/12/04 00:31:18;;;;;;;86.22;28.48;;;;;;;3.67;100.00;99947.44;5081532;28;20075;-70
2021/12/04 00:33:51;;;;;;;64.35;27.10;;;;;;;3.70;100.00;99943.91;5103911;27;20259;-70
2021/12/04 00:36:29;;;;;;;76.40;26.80;;;;;;;3.70;100.00;99936.84;5083295;28;20040;-70
2021/12/04 00:50:00;;;;;;;76.18;29.67;;;;;;;3.71;100.00;99958.81;5084274;28;20036;-70
2021/12/04 00:52:29;;;;;;;84.25;27.27;;;;;;;3.74;100.00;99964.91;5089431;28;20056;-70
2021/12/04 00:55:00;;;;;;;79.78;28.27;;;;;;;3.74;100.00;99964.91;5083752;28;20138;-70
2021/12/04 00:57:28;;;;;;;79.35;28.08;;;;;;;3.76;100.00;99964.88;5090331;28;20057;-70
2021/12/04 00:59:56;;;;;;;77.18;26.38;;;;;;;3.75;100.00;99963.16;5082811;28;20046;-70
2021/12/04 01:02:26;;;;;;;75.65;26.90;;;;;;;3.76;100.00;99953.47;5088561;28;20044;-70
2021/12/04 01:04:54;;;;;;;75.75;26.77;;;;;;;3.77;100.00;99955.22;5087912;28;20605;-69
2021/12/04 01:07:24;;;;;;;82.60;28.92;;;;;;;3.75;100.00;99952.59;5069862;28;20529;-69
2021/12/04 01:09:54;;;;;;;87.60;29.00;;;;;;;3.78;100.00;99939.34;5067170;28;20044;-69
2021/12/04 01:12:23;;;;;;;87.85;27.98;;;;;;;3.77;100.00;99942.88;5085476;28;20066;-71
2021/12/04 01:14:51;;;;;;;75.25;26.92;;;;;;;3.73;100.00;99941.22;5090301;28;20093;-73
2021/12/04 01:17:18;;;;;;;73.95;27.98;;;;;;;3.74;100.00;99935.03;5063515;28;20048;-71
2021/12/04 01:19:46;;;;;;;88.60;26.70;;;;;;;3.73;100.00;99933.28;5089272;28;20044;-71
2021/12/04 01:22:14;;;;;;;83.72;28.45;;;;;;;3.74;100.00;99927.97;5084137;28;20130;-71
2021/12/04 01:24:43;;;;;;;80.30;29.95;;;;;;;3.76;100.00;99927.06;5087644;28;20044;-71
2021/12/04 01:27:14;;;;;;;79.28;27.17;;;;;;;3.76;100.00;99925.28;5090260;28;20075;-71
2021/12/04 01:29:42;;;;;;;89.40;28.80;;;;;;;3.74;100.00;99917.41;5086253;28;20113;-70
2021/12/04 01:32:10;;;;;;;78.55;27.05;;;;;;;3.71;100.00;99904.28;5088837;28;20074;-70
2021/12/04 01:34:40;;;;;;;81.28;26.63;;;;;;;3.76;100.00;99913.88;5086879;27;20082;-69
2021/12/04 01:37:09;;;;;;;77.38;26.80;;;;;;;3.71;100.00;99904.28;5091852;27;20051;-71
2021/12/04 01:39:39;;;;;;;71.47;25.65;;;;;;;3.79;100.00;99906.78;5091796;27;20066;-71
2021/12/04 01:42:09;;;;;;;76.13;23.77;;;;;;;3.82;100.00;99916.41;5091921;27;20706;-70
2021/12/04 01:44:40;;;;;;;82.53;25.15;;;;;;;3.77;100.00;99911.22;5089019;27;20483;-70
2021/12/04 01:47:13;;;;;;;81.68;26.42;;;;;;;3.76;100.00;99917.38;5092319;27;20099;-72
2021/12/04 01:49:41;;;;;;;86.38;27.48;;;;;;;3.79;100.00;99924.38;5087064;27;20466;-69
2021/12/04 01:52:12;;;;;;;67.22;23.20;;;;;;;3.84;100.00;99918.09;5088276;27;21446;-69
2021/12/04 01:54:42;;;;;;;74.85;25.17;;;;;;;3.81;100.00;99915.53;5084468;27;20467;-69
2021/12/04 01:57:12;;;;;;;80.72;26.48;;;;;;;3.79;100.00;99916.47;5093001;27;20124;-72
2021/12/04 01:59:42;;;;;;;75.45;26.83;;;;;;;3.75;100.00;99905.09;5086659;27;20118;-72
2021/12/04 02:02:14;;;;;;;81.10;28.00;;;;;;;3.76;100.00;99905.97;5088322;27;20048;-70
2021/12/04 02:04:46;;;;;;;87.78;26.02;;;;;;;3.78;100.00;99893.59;5090175;27;20055;-70
2021/12/04 02:07:15;;;;;;;83.15;25.60;;;;;;;3.78;100.00;99901.53;5090093;27;20167;-70
2021/12/04 02:09:46;;;;;;;84.30;26.17;;;;;;;3.79;100.00;99901.50;5068628;28;20581;-70
2021/12/04 02:12:17;;;;;;;83.63;24.98;;;;;;;3.77;100.00;99895.38;5086554;27;20071;-70
2021/12/04 02:14:47;;;;;;;75.63;23.98;;;;;;;3.78;100.00;99899.78;5091558;27;20313;-70
2021/12/04 02:17:15;;;;;;;80.35;25.45;;;;;;;3.76;100.00;99901.56;5089403;27;20130;-70
2021/12/04 02:19:46;;;;;;;96.07;24.95;;;;;;;3.75;100.00;99889.28;5090431;27;20051;-70
2021/12/04 02:22:17;;;;;;;86.63;28.60;;;;;;;3.74;100.00;99890.16;5075499;28;20124;-70
2021/12/04 02:24:46;;;;;;;87.68;25.55;;;;;;;3.76;100.00;99901.56;5089463;27;20052;-70
2021/12/04 02:27:15;;;;;;;81.97;26.65;;;;;;;3.76;100.00;99903.31;5088717;27;20043;-70
2021/12/04 02:29:47;;;;;;;95.97;26.67;;;;;;;3.77;100.00;99895.38;5086273;27;20488;-71
2021/12/04 02:32:19;;;;;;;79.20;26.67;;;;;;;3.83;100.00;99895.28;5092819;27;20043;-69
2021/12/04 02:34:48;;;;;;;74.85;23.75;;;;;;;3.81;100.00;99891.78;5088048;27;20197;-71
2021/12/04 02:37:17;;;;;;;79.45;27.23;;;;;;;3.80;100.00;99889.16;5076382;28;20142;-70
2021/12/04 02:39:46;;;;;;;87.68;26.40;;;;;;;3.79;100.00;99888.31;5093049;27;20051;-70
2021/12/04 02:42:22;;;;;;;72.72;24.38;;;;;;;3.81;100.00;99896.19;5069108;28;20556;-70
2021/12/04 02:44:50;;;;;;;87.20;25.40;;;;;;;3.81;100.00;99896.19;5091454;27;20063;-70
2021/12/04 02:47:21;;;;;;;94.85;28.95;;;;;;;3.79;100.00;99890.06;5086681;27;20091;-70
2021/12/04 02:49:49;;;;;;;78.30;24.48;;;;;;;3.79;100.00;99884.81;5091827;27;20055;-70
2021/12/04 02:52:19;;;;;;;82.63;24.08;;;;;;;3.80;100.00;99891.81;5087366;27;20534;-71
2021/12/04 02:54:47;;;;;;;84.47;27.10;;;;;;;3.79;100.00;99892.72;5090737;27;20660;-70
2021/12/04 02:57:17;;;;;;;83.80;26.30;;;;;;;3.78;100.00;99889.22;5087751;27;20124;-70
2021/12/04 02:59:45;;;;;;;91.80;25.83;;;;;;;3.78;100.00;99889.22;5075233;27;20625;-70
2021/12/04 03:02:18;;;;;;;93.97;27.30;;;;;;;3.78;100.00;99881.31;5086893;27;20055;-70
2021/12/04 03:04:50;;;;;;;92.30;24.70;;;;;;;3.80;100.00;99882.13;5091046;27;20056;-70
2021/12/04 03:07:21;;;;;;;82.90;25.35;;;;;;;3.80;100.00;99884.78;5088673;27;20040;-70
2021/12/04 03:09:52;;;;;;;80.05;24.55;;;;;;;3.80;100.00;99895.34;5089675;28;20051;-70
2021/12/04 03:12:23;;;;;;;88.93;27.88;;;;;;;3.79;100.00;99888.31;5068796;28;20117;-70
2021/12/04 03:14:52;;;;;;;85.40;26.75;;;;;;;3.80;100.00;99881.25;5088914;27;20079;-70
2021/12/04 03:17:25;;;;;;;81.32;26.90;;;;;;;3.81;100.00;99875.94;5087471;27;20067;-70
2021/12/04 03:19:54;;;;;;;88.57;26.33;;;;;;;3.81;100.00;99873.31;5089245;27;20066;-70
2021/12/04 03:22:23;;;;;;;99.80;27.88;;;;;;;3.81;100.00;99870.66;5088265;27;20086;-70
2021/12/04 03:24:52;;;;;;;74.10;24.35;;;;;;;3.80;100.00;99861.03;5090341;27;20456;-72
2021/12/04 03:27:20;;;;;;;97.03;27.40;;;;;;;3.81;100.00;99868.03;5089440;27;20052;-70
2021/12/04 03:29:55;;;;;;;90.18;24.50;;;;;;;3.86;100.00;99865.31;5087378;27;20051;-70
2021/12/04 03:40:01;;;;;;;86.47;27.33;;;;;;;3.82;100.00;99851.31;5032726;27;20064;-70
2021/12/04 03:41:06;;;;;;;76.93;24.65;;;;;;;3.82;100.00;99843.38;5088177;28;20956;-70
2021/12/04 03:43:39;;;;;;;90.00;27.35;;;;;;;3.83;100.00;99845.13;5084389;27;20046;-70
2021/12/04 03:46:10;;;;;;;82.95;24.75;;;;;;;3.83;100.00;99831.03;5088254;27;20068;-70
2021/12/04 03:51:22;;;;;;;77.75;25.02;;;;;;;3.83;100.00;99831.94;5089808;27;20137;-70
2021/12/04 03:53:55;;;;;;;84.75;25.45;;;;;;;3.87;100.00;99830.97;5066775;27;20056;-70
2021/12/04 03:56:24;;;;;;;95.43;28.00;;;;;;;3.87;100.00;99830.09;5071539;28;20457;-70
2021/12/04 03:58:52;;;;;;;91.90;27.63;;;;;;;3.88;100.00;99826.53;5085905;27;20056;-70
2021/12/04 04:01:20;;;;;;;77.40;24.25;;;;;;;3.86;100.00;99826.56;5089481;27;20083;-70
2021/12/04 04:03:49;;;;;;;90.15;27.35;;;;;;;3.86;100.00;99818.66;5087380;28;20142;-70
2021/12/04 04:06:18;;;;;;;87.30;27.98;;;;;;;3.86;100.00;99828.34;5085127;28;20047;-70
2021/12/04 04:08:47;;;;;;;95.53;27.35;;;;;;;3.85;100.00;99827.50;5072743;28;20067;-70
2021/12/04 04:11:16;;;;;;;86.38;27.80;;;;;;;3.87;100.00;99823.03;5087681;28;20091;-73
2021/12/04 04:13:45;;;;;;;98.15;26.25;;;;;;;3.88;100.00;99819.53;5089798;28;20062;-70
2021/12/04 04:16:14;;;;;;;91.15;25.85;;;;;;;3.90;100.00;99816.84;5069265;28;20128;-70
2021/12/04 04:18:44;;;;;;;104.13;27.10;;;;;;;3.92;100.00;99815.91;5089239;28;20051;-70
2021/12/04 04:21:13;;;;;;;88.95;26.30;;;;;;;3.92;100.00;99809.75;5084035;28;20691;-70
2021/12/04 04:23:45;;;;;;;93.55;27.15;;;;;;;3.92;100.00;99810.63;5089506;28;20051;-70
2021/12/04 04:26:13;;;;;;;83.55;25.63;;;;;;;3.92;100.00;99809.75;5069378;28;20551;-70
2021/12/04 04:28:45;;;;;;;87.43;28.25;;;;;;;3.90;100.00;99807.16;5085733;28;20064;-70
2021/12/04 04:31:14;;;;;;;95.30;26.25;;;;;;;3.94;100.00;99805.31;5084852;28;20048;-71
2021/12/04 04:33:44;;;;;;;85.13;27.17;;;;;;;3.93;100.00;99812.38;5092599;28;20236;-70
2021/12/04 04:36:23;;;;;;;96.80;27.63;;;;;;;3.93;100.00;99806.19;5085578;28;20063;-70
2021/12/04 04:39:08;;;;;;;100.15;31.08;;;;;;;3.96;100.00;99805.28;5093969;28;20206;-71
2021/12/04 04:58:44;;;;;;;78.80;24.33;;;;;;;4.00;100.00;99783.19;5088863;28;20052;-69
2021/12/04 05:01:30;;;;;;;71.05;24.10;;;;;;;4.00;100.00;99783.19;5084572;28;20056;-72
2021/12/04 05:12:22;;;;;;;78.78;23.65;;;;;;;3.99;100.00;99774.41;5091490;27;20098;-72
2021/12/04 05:14:55;;;;;;;85.10;25.90;;;;;;;3.99;100.00;99761.22;5094770;27;20444;-73
2021/12/04 05:17:31;;;;;;;62.58;22.73;;;;;;;3.99;100.00;99771.75;5090218;27;20055;-72
2021/12/04 05:19:59;;;;;;;72.97;23.08;;;;;;;4.01;100.00;99764.66;5090799;27;20057;-73
2021/12/04 05:22:26;;;;;;;63.55;21.58;;;;;;;4.01;100.00;99756.75;5093772;27;20132;-72
2021/12/04 05:24:54;;;;;;;77.25;22.55;;;;;;;3.99;100.00;99734.81;5093082;27;20515;-72
2021/12/04 05:27:22;;;;;;;71.43;23.77;;;;;;;4.00;100.00;99747.13;5093162;27;20056;-73
2021/12/04 05:29:50;;;;;;;73.13;23.50;;;;;;;4.03;100.00;99752.31;5090260;27;20196;-73
2021/12/04 05:32:18;;;;;;;74.35;23.35;;;;;;;4.01;100.00;99754.13;5094107;27;20047;-72
2021/12/04 05:34:47;;;;;;;63.28;22.77;;;;;;;4.02;100.00;99755.88;5086346;27;20049;-72
2021/12/04 05:37:15;;;;;;;70.30;24.40;;;;;;;4.04;100.00;99761.13;5091760;27;20056;-72
2021/12/04 05:39:43;;;;;;;69.82;22.63;;;;;;;4.04;100.00;99751.41;5087995;27;20113;-72
2021/12/04 05:42:11;;;;;;;66.93;20.55;;;;;;;4.02;100.00;99747.06;5095241;27;20248;-72
2021/12/04 05:44:41;;;;;;;76.53;22.55;;;;;;;4.04;100.00;99753.19;5088252;27;20052;-74
2021/12/04 05:47:15;;;;;;;73.75;23.00;;;;;;;4.01;100.00;99753.25;5093255;27;20117;-73
2021/12/04 05:49:52;;;;;;;73.95;23.88;;;;;;;4.01;100.00;99746.19;5092325;27;20408;-73
2021/12/04 05:52:34;;;;;;;88.18;25.40;;;;;;;3.96;100.00;99737.50;5089499;27;20075;-73
2021/12/04 05:55:15;;;;;;;81.70;25.52;;;;;;;3.92;100.00;99742.00;5091320;27;20488;-73
2021/12/04 05:57:43;;;;;;;79.43;25.00;;;;;;;3.91;100.00;99737.59;5089251;27;20146;-73
2021/12/04 06:00:14;;;;;;;82.28;25.55;;;;;;;3.92;100.00;99734.06;5092003;27;20503;-73
2021/12/04 06:02:42;;;;;;;85.25;25.15;;;;;;;3.90;100.00;99737.66;5089344;27;20080;-73
2021/12/04 06:05:10;;;;;;;78.18;23.45;;;;;;;3.87;100.00;99741.22;5089328;27;20044;-74
2021/12/04 06:07:40;;;;;;;82.07;25.15;;;;;;;3.86;100.00;99739.47;5091253;27;20051;-73
2021/12/04 06:10:09;;;;;;;66.07;20.13;;;;;;;3.87;100.00;99735.09;5096214;27;20526;-73
2021/12/04 06:12:37;;;;;;;66.05;20.15;;;;;;;3.85;100.00;99735.13;5087308;27;20495;-73
2021/12/04 06:15:07;;;;;;;77.78;21.15;;;;;;;3.87;100.00;99735.09;5092824;27;20692;-73
2021/12/04 06:17:36;;;;;;;68.57;21.45;;;;;;;3.85;100.00;99736.91;5090621;27;20047;-73
2021/12/04 06:22:53;;;;;;;68.60;19.85;;;;;;;3.86;100.00;99730.69;5087814;27;20075;-73
2021/12/04 06:25:24;;;;;;;68.45;20.75;;;;;;;3.85;100.00;99728.97;5090825;27;20575;-73
2021/12/04 06:27:53;;;;;;;67.10;20.45;;;;;;;3.82;100.00;99724.63;5089767;27;20830;-73
2021/12/04 06:30:22;;;;;;;59.85;20.40;;;;;;;3.82;100.00;99732.53;5090745;27;20040;-73
2021/12/04 06:32:52;;;;;;;59.38;18.77;;;;;;;3.79;100.00;99743.16;5088508;27;20079;-73
2021/12/04 06:35:21;;;;;;;55.00;17.65;;;;;;;3.77;100.00;99738.84;5091712;27;20040;-73
2021/12/04 06:37:50;;;;;;;54.55;18.35;;;;;;;3.72;100.00;99741.56;5089181;27;20050;-73
2021/12/04 06:40:25;;;;;;;71.55;20.35;;;;;;;3.73;100.00;99738.03;5093055;27;20070;-73
2021/12/04 06:42:53;;;;;;;75.90;19.98;;;;;;;3.70;100.00;99735.47;5086283;27;20122;-73
2021/12/04 06:45:21;;;;;;;67.30;21.17;;;;;;;3.70;100.00;99749.50;5092706;27;20131;-70
2021/12/04 06:47:56;;;;;;;60.63;18.90;;;;;;;3.70;100.00;99746.88;5101202;27;20047;-69
2021/12/04 06:50:33;;;;;;;65.22;20.33;;;;;;;3.70;100.00;99733.69;5090815;27;20052;-70
2021/12/04 06:53:12;;;;;;;65.75;20.23;;;;;;;3.71;100.00;99735.44;5067008;28;20722;-70
2021/12/04 06:55:47;;;;;;;70.45;21.08;;;;;;;3.70;100.00;99738.97;5092506;27;20109;-70
2021/12/04 06:58:16;;;;;;;73.43;21.23;;;;;;;3.69;100.00;99731.06;5086593;27;20048;-69
2021/12/04 07:00:47;;;;;;;80.10;24.13;;;;;;;3.68;100.00;99732.00;5072846;28;20100;-69
2021/12/04 07:03:24;;;;;;;78.07;22.10;;;;;;;3.67;100.00;99731.09;5085312;27;20051;-69
2021/12/04 07:05:54;;;;;;;68.38;22.02;;;;;;;3.65;100.00;99738.19;5091747;27;20054;-69
2021/12/04 07:08:22;;;;;;;87.70;24.63;;;;;;;3.57;100.00;99732.19;5067138;28;20547;-72
2021/12/04 07:10:52;;;;;;;79.78;21.83;;;;;;;3.52;100.00;99724.41;5092172;27;20048;-72
2021/12/04 07:13:20;;;;;;;73.15;23.27;;;;;;;3.52;100.00;99726.16;5085922;27;20804;-73
2021/12/04 07:15:57;;;;;;;82.72;24.38;;;;;;;3.46;100.00;99723.66;5096053;27;20130;-73
2021/12/04 07:18:25;;;;;;;69.75;20.38;;;;;;;3.47;100.00;99733.28;5086781;27;20040;-73
2021/12/04 07:20:54;;;;;;;67.50;19.85;;;;;;;3.47;100.00;99730.66;5093466;27;20558;-73
2021/12/04 07:23:22;;;;;;;61.95;18.60;;;;;;;3.49;100.00;99728.84;5086389;28;20101;-75
2021/12/04 07:25:52;;;;;;;65.20;18.17;;;;;;;3.47;100.00;99728.88;5091819;27;20091;-70
2021/12/04 07:28:25;;;;;;;68.07;20.15;;;;;;;3.43;100.00;99715.81;5087066;27;20567;-70
2021/12/04 07:30:54;;;;;;;78.07;23.77;;;;;;;3.39;100.00;99707.09;5057346;28;20221;-73
2021/12/04 07:33:22;;;;;;;73.15;21.65;;;;;;;3.42;100.00;99704.38;5085447;27;20562;-73
2021/12/04 07:35:51;;;;;;;82.60;20.63;;;;;;;3.35;100.00;99697.50;5091153;27;20105;-73
2021/12/04 07:38:20;;;;;;;63.47;20.63;;;;;;;3.32;100.00;99694.91;5083269;27;20108;-70
2021/12/04 07:40:56;;;;;;;61.63;17.83;;;;;;;3.29;100.00;99698.50;5087548;27;20075;-70
2021/12/04 07:43:25;;;;;;;64.18;17.70;;;;;;;3.28;100.00;99688.84;5066652;28;20051;-73
2021/12/04 07:45:53;;;;;;;46.30;15.27;;;;;;;3.34;100.00;99674.66;5089332;27;20044;-73
2021/12/04 07:48:21;;;;;;;45.67;14.20;;;;;;;3.35;100.00;99677.28;5088926;27;20062;-73
2021/12/04 07:50:49;;;;;;;37.17;12.18;;;;;;;3.34;100.00;99674.66;5090047;27;20043;-73
2021/12/04 07:53:17;;;;;;;50.28;14.27;;;;;;;3.28;100.00;99677.44;5084109;28;20492;-75
2021/12/04 07:55:45;;;;;;;42.58;12.40;;;;;;;3.32;100.00;99663.25;5090175;27;20558;-74
2021/12/04 07:58:14;;;;;;;36.67;11.95;;;;;;;3.31;100.00;99662.41;5085162;27;20377;-74
2021/12/04 08:00:43;;;;;;;40.70;11.57;;;;;;;3.31;100.00;99654.50;5087978;27;20132;-71
2021/12/04 08:03:15;;;;;;;37.22;11.95;;;;;;;3.31;100.00;99664.19;5067570;28;20060;-70
2021/12/04 08:05:46;;;;;;;44.53;12.15;;;;;;;3.31;100.00;99659.78;5088147;27;20255;-71
2021/12/04 08:08:24;;;;;;;53.78;14.73;;;;;;;3.32;100.00;99663.25;5070317;27;20051;-71
2021/12/04 08:10:55;;;;;;;48.60;13.83;;;;;;;3.34;100.00;99658.84;5089151;27;20131;-70
2021/12/04 08:13:30;;;;;;;41.28;12.75;;;;;;;3.36;100.00;99657.91;5089013;27;20405;-71
2021/12/04 08:16:00;;;;;;;50.97;15.35;;;;;;;3.33;100.00;99665.00;5082017;28;20063;-71
2021/12/04 08:18:35;;;;;;;54.90;16.13;;;;;;;3.31;100.00;99653.63;5069029;28;20057;-71
2021/12/04 08:21:13;;;;;;;54.55;14.90;;;;;;;3.30;100.00;99667.72;5067278;28;20441;-71
2021/12/04 08:23:44;;;;;;;48.20;15.32;;;;;;;3.30;100.00;99688.81;5088062;28;20043;-71
2021/12/04 08:26:18;;;;;;;49.10;16.77;;;;;;;3.31;100.00;99688.78;5088998;27;20085;-71
2021/12/04 08:28:50;;;;;;;49.47;15.88;;;;;;;3.33;100.00;99697.50;5084283;28;20051;-75
2021/12/04 08:31:22;;;;;;;55.80;17.60;;;;;;;3.30;100.00;99688.81;5082405;28;20032;-71
2021/12/04 08:33:54;;;;;;;56.00;17.10;;;;;;;3.32;100.00;99681.72;5093180;28;20096;-71
2021/12/04 08:39:08;;;;;;;55.95;15.27;;;;;;;3.39;100.00;99669.28;5092074;28;20304;-71
2021/12/04 08:41:38;;;;;;;53.10;17.08;;;;;;;3.38;100.00;99676.34;5066187;28;20071;-71
2021/12/04 08:44:23;;;;;;;49.70;15.35;;;;;;;3.43;100.00;99673.59;5095668;27;20043;-71
2021/12/04 08:46:53;;;;;;;59.40;17.90;;;;;;;3.42;100.00;99659.53;5089758;27;20044;-71
2021/12/04 08:49:26;;;;;;;58.90;17.27;;;;;;;3.43;100.00;99657.78;5095583;27;20079;-70
2021/12/04 08:51:55;;;;;;;67.88;19.00;;;;;;;3.49;100.00;99662.91;5095587;27;20185;-70
2021/12/04 08:54:26;;;;;;;58.08;16.55;;;;;;;3.53;100.00;99656.69;5072790;27;20052;-70
2021/12/04 08:56:54;;;;;;;52.70;15.95;;;;;;;3.55;100.00;99645.19;5090960;27;20051;-74
2021/12/04 08:59:23;;;;;;;60.33;17.17;;;;;;;3.55;100.00;99645.19;5089951;27;20153;-74
2021/12/04 09:01:52;;;;;;;59.67;17.02;;;;;;;3.61;100.00;99646.84;5094670;27;20083;-75
2021/12/04 09:04:23;;;;;;;56.88;17.05;;;;;;;3.61;100.00;99644.19;5087663;27;20044;-75
2021/12/04 09:06:52;;;;;;;63.28;19.80;;;;;;;3.63;100.00;99638.88;5090975;27;20052;-75
2021/12/04 09:09:20;;;;;;;57.33;18.48;;;;;;;3.65;100.00;99645.84;5091261;27;20075;-75
2021/12/04 09:11:52;;;;;;;58.63;20.15;;;;;;;3.68;100.00;99647.56;5087706;27;20460;-74
2021/12/04 09:14:24;;;;;;;53.38;18.17;;;;;;;3.71;100.00;99643.06;5091792;27;20155;-74
2021/12/04 09:16:54;;;;;;;72.18;21.98;;;;;;;3.69;100.00;99638.72;5088882;27;20055;-75
2021/12/04 09:19:22;;;;;;;59.75;19.90;;;;;;;3.74;100.00;99631.56;5093374;27;20059;-74
2021/12/04 09:21:52;;;;;;;71.55;19.58;;;;;;;3.79;100.00;99631.47;5089673;27;20043;-74
2021/12/04 09:24:26;;;;;;;70.65;20.92;;;;;;;3.79;100.00;99639.38;5088806;27;20078;-74
2021/12/04 09:27:06;;;;;;;64.93;19.42;;;;;;;3.85;100.00;99634.84;5072070;28;20502;-70
2021/12/04 09:30:01;;;;;;;63.63;18.15;;;;;;;3.87;100.00;99629.53;5070436;28;20602;-70
2021/12/04 10:00:57;;;;;;;82.32;22.70;;;;;;;4.04;100.00;99600.94;5069082;28;20045;-71
2021/12/04 10:12:26;;;;;;;76.13;23.95;;;;;;;4.13;100.00;99569.94;5072126;28;20481;-75
2021/12/04 10:20:59;;;;;;;70.55;21.42;;;;;;;4.19;100.00;99580.31;5062757;28;20479;-75
2021/12/04 10:23:46;;;;;;;69.22;22.00;;;;;;;4.20;100.00;99584.69;5072656;28;20218;-75
2021/12/04 10:34:47;;;;;;;61.75;19.83;;;;;;;4.32;100.00;99580.88;5053395;28;20044;-76
2021/12/04 10:37:22;;;;;;;62.17;21.25;;;;;;;4.30;100.00;99583.56;5087985;27;20051;-75
2021/12/04 10:39:52;;;;;;;62.00;20.40;;;;;;;4.33;100.00;99569.41;5092652;27;20056;-75
2021/12/04 10:42:24;;;;;;;59.92;20.15;;;;;;;4.32;100.00;99575.59;5086985;27;20052;-75
2021/12/04 10:44:55;;;;;;;72.75;20.02;;;;;;;4.27;100.00;99573.06;5094546;27;20035;-75
2021/12/04 10:47:24;;;;;;;69.93;19.60;;;;;;;4.27;100.00;99575.72;5089148;27;20557;-75
2021/12/04 10:50:10;;;;;;;59.75;19.95;;;;;;;4.26;100.00;99579.28;5094939;27;20040;-71
2021/12/04 10:52:57;;;;;;;61.60;21.40;;;;;;;4.29;100.00;99582.69;5086671;27;21543;-71
2021/12/04 10:55:45;;;;;;;64.45;19.83;;;;;;;4.31;100.00;99585.31;5093817;27;20180;-71
2021/12/04 11:04:24;;;;;;;71.05;23.55;;;;;;;4.26;100.00;99555.50;5085699;27;20052;-71
2021/12/04 11:07:38;;;;;;;81.68;24.85;;;;;;;4.23;100.00;99550.31;5085797;27;20036;-71
2021/12/04 11:20:18;;;;;;;84.10;24.33;;;;;;;4.27;100.00;99526.44;5089252;27;20058;-74
2021/12/04 11:23:00;;;;;;;91.47;24.75;;;;;;;4.24;100.00;99508.00;5088922;28;20068;-74
2021/12/04 11:40:31;;;;;;;95.72;29.05;;;;;;;4.31;100.00;99495.50;5073220;27;20616;-70
2021/12/04 11:43:10;;;;;;;96.13;26.33;;;;;;;4.30;100.00;99491.97;5090504;27;20071;-70
2021/12/04 11:46:00;;;;;;;104.57;25.65;;;;;;;4.31;100.00;99487.59;5086689;27;20892;-71
2021/12/04 11:48:31;;;;;;;95.53;24.65;;;;;;;4.37;100.00;99481.25;5089416;27;20058;-70
2021/12/04 11:51:13;;;;;;;89.97;24.88;;;;;;;4.41;100.00;99474.97;5069563;28;20040;-70
2021/12/04 11:53:43;;;;;;;84.88;26.35;;;;;;;4.37;100.00;99474.19;5089537;27;20130;-69
2021/12/04 11:56:21;;;;;;;97.85;29.20;;;;;;;4.37;100.00;99476.84;5074652;28;20528;-70
2021/12/04 11:58:57;;;;;;;87.90;25.42;;;;;;;4.41;100.00;99481.13;5084589;27;20056;-71
2021/12/04 12:01:31;;;;;;;78.30;22.30;;;;;;;4.48;100.00;99487.13;5091619;27;20043;-69
2021/12/04 12:04:16;;;;;;;79.00;22.02;;;;;;;4.49;100.00;99495.00;5091195;27;20059;-70
2021/12/04 12:06:47;;;;;;;73.50;22.35;;;;;;;4.48;100.00;99495.03;5089225;27;20052;-69
2021/12/04 12:09:17;;;;;;;93.97;24.40;;;;;;;4.47;100.00;99485.38;5072279;28;20047;-71
2021/12/04 12:11:51;;;;;;;69.75;21.35;;;;;;;4.48;100.00;99481.84;5087044;27;20079;-72
2021/12/04 12:14:35;;;;;;;64.88;19.42;;;;;;;4.54;100.00;99480.78;5086144;27;20051;-70
2021/12/04 12:17:04;;;;;;;;;;;;;;;4.55;100.00;99470.16;5089493;27;20044;-70
2021/12/04 12:19:38;;;;;;;69.05;19.65;;;;;;;4.55;100.00;99467.53;5088373;28;19915;-70
2021/12/04 12:22:25;;;;;;;67.15;18.50;;;;;;;4.56;100.00;99460.47;5089924;28;20143;-70
2021/12/04 12:25:08;;;;;;;59.85;18.70;;;;;;;4.59;100.00;99455.09;5089057;28;20232;-74
2021/12/04 12:33:26;;;;;;;43.88;14.82;;;;;;;4.55;100.00;99456.09;5083550;28;20096;-70
2021/12/04 12:36:04;;;;;;;43.55;13.98;;;;;;;4.56;100.00;99449.88;5086216;28;20131;-69
2021/12/04 12:38:43;;;;;;;47.42;14.18;;;;;;;4.58;100.00;99455.97;5084425;28;20562;-69
2021/12/04 12:41:16;;;;;;;43.63;13.80;;;;;;;4.57;100.00;99455.13;5086979;28;20125;-71
2021/12/04 12:43:50;;;;;;;42.88;12.80;;;;;;;4.62;100.00;99453.22;5087258;28;20224;-73
2021/12/04 12:46:19;;;;;;;38.03;13.07;;;;;;;4.65;100.00;99449.63;5085966;28;20083;-70
2021/12/04 12:48:51;;;;;;;36.05;13.18;;;;;;;4.61;100.00;99446.19;5083243;28;20058;-70
2021/12/04 12:51:31;;;;;;;30.25;12.07;;;;;;;4.58;100.00;99454.22;5088268;28;20055;-71
2021/12/04 12:54:06;;;;;;;27.77;11.63;;;;;;;4.61;100.00;99446.19;5085638;28;20115;-72
2021/12/04 12:56:38;;;;;;;34.08;11.93;;;;;;;4.67;100.00;99443.38;5083545;28;20093;-72
2021/12/04 12:59:23;;;;;;;28.15;10.95;;;;;;;4.66;100.00;99439.00;5089542;28;20055;-73
2021/12/04 13:13:34;;;;;;;24.58;8.18;;;;;;;4.86;100.00;99448.97;5084428;28;20512;-72
2021/12/04 13:16:07;;;;;;;21.50;6.45;;;;;;;4.85;100.00;99459.56;5087863;28;20073;-72
2021/12/04 13:18:37;;;;;;;12.63;4.13;;;;;;;4.83;100.00;99451.69;5086303;28;20055;-71
2021/12/04 13:21:08;;;;;;;7.45;2.58;;;;;;;4.81;100.00;99455.31;5087617;28;20047;-71
2021/12/04 13:23:39;;;;;;;6.35;2.00;;;;;;;4.80;100.00;99457.09;5085187;28;20544;-73
2021/12/04 13:26:15;;;;;;;4.13;1.60;;;;;;;4.78;100.00;99469.47;5085796;28;20097;-72
2021/12/04 13:28:49;;;;;;;4.97;1.83;;;;;;;4.75;100.00;99458.13;5086996;27;20051;-72
2021/12/04 13:31:18;;;;;;;5.72;1.73;;;;;;;4.74;100.00;99459.91;5091331;27;20129;-72
2021/12/04 13:33:49;;;;;;;4.35;1.65;;;;;;;4.72;100.00;99463.53;5089702;27;20052;-73
2021/12/04 13:36:19;;;;;;;2.55;2.00;;;;;;;4.72;100.00;99466.16;5092967;27;20051;-72
2021/12/04 13:38:47;;;;;;;7.70;2.00;;;;;;;4.71;100.00;99459.16;5090651;27;20059;-69
2021/12/04 13:41:18;;;;;;;2.22;1.27;;;;;;;4.73;100.00;99466.09;5090100;27;20047;-71
2021/12/04 13:43:52;;;;;;;5.68;2.00;;;;;;;4.79;100.00;99476.50;5094340;27;20060;-72
2021/12/04 13:46:20;;;;;;;12.10;2.35;;;;;;;4.80;100.00;99480.00;5088606;27;20050;-72
2021/12/04 13:48:50;;;;;;;6.32;2.58;;;;;;;4.79;100.00;99476.50;5094123;27;20048;-72
2021/12/04 13:51:19;;;;;;;11.82;1.98;;;;;;;4.79;100.00;99484.44;5092935;27;20081;-73
2021/12/04 13:53:49;;;;;;;5.82;1.80;;;;;;;4.83;100.00;99478.13;5090375;27;20111;-72
2021/12/04 13:56:22;;;;;;;4.63;1.80;;;;;;;4.81;100.00;99479.94;5094201;27;20267;-72
2021/12/04 13:58:54;;;;;;;2.78;1.55;;;;;;;4.81;100.00;99477.31;5090726;27;20135;-71
2021/12/04 14:01:22;;;;;;;10.57;2.78;;;;;;;4.81;100.00;99479.09;5091914;27;20109;-71
2021/12/04 14:03:54;;;;;;;4.05;2.00;;;;;;;4.80;100.00;99478.25;5089484;27;20051;-72
2021/12/04 14:06:22;;;;;;;19.25;7.35;;;;;;;4.81;100.00;99477.31;5088408;27;20065;-73
2021/12/04 14:08:59;;;;;;;11.85;3.78;;;;;;;4.79;100.00;99488.84;5092094;27;20059;-73
2021/12/04 14:11:33;;;;;;;7.70;3.13;;;;;;;4.77;100.00;99494.19;5088412;27;20395;-73